sensor_id;sensor_type;location;lat;lon;timestamp;noise_LAeq;noise_LA_min;noise_LA_max;noise_LA01;noise_LA95
50333;Laerm;36239;48.132;-1.210;2023-03-14T00:02:19;49.54;34.31;80.97;;
50333;Laerm;36239;48.132;-1.210;2023-03-14T00:04:45;46.49;34.69;76.30;;
50333;Laerm;36239;48.132;-1.210;2023-03-14T00:07:11;43.24;34.69;71.99;;
50333;Laerm;36239;48.132;-1.210;2023-03-14T00:09:38;68.77;34.69;98.21;;
50333;Laerm;36239;48.132;-1.210;2023-03-14T00:12:04;59.05;35.04;87.21;;
50333;Laerm;36239;48.132;-1.210;2023-03-14T00:14:31;61.12;33.90;89.52;;
50333;Laerm;36239;48.132;-1.210;2023-03-14T00:16:57;61.67;34.31;87.43;;
50333;Laerm;36239;48.132;-1.210;2023-03-14T00:19:23;49.39;33.90;79.49;;
50333;Laerm;36239;48.132;-1.210;2023-03-14T00:21:49;56.34;34.31;85.55;;
50333;Laerm;36239;48.132;-1.210;2023-03-14T00:24:15;53.71;34.69;79.90;;
50333;Laerm;36239;48.132;-1.210;2023-03-14T00:26:41;47.66;33.90;72.44;;
50333;Laerm;36239;48.132;-1.210;2023-03-14T00:29:07;52.52;35.36;78.47;;
50333;Laerm;36239;48.132;-1.210;2023-03-14T00:31:33;56.62;35.04;84.88;;
50333;Laerm;36239;48.132;-1.210;2023-03-14T00:34:01;43.28;34.69;71.56;;
50333;Laerm;36239;48.132;-1.210;2023-03-14T00:36:27;43.94;33.44;69.97;;
50333;Laerm;36239;48.132;-1.210;2023-03-14T00:38:53;46.30;34.69;71.47;;
50333;Laerm;36239;48.132;-1.210;2023-03-14T00:41:21;60.83;35.36;87.96;;
50333;Laerm;36239;48.132;-1.210;2023-03-14T00:43:48;55.37;35.94;81.15;;
50333;Laerm;36239;48.132;-1.210;2023-03-14T00:46:14;65.79;35.04;94.35;;
50333;Laerm;36239;48.132;-1.210;2023-03-14T00:48:40;62.96;36.69;89.31;;
50333;Laerm;36239;48.132;-1.210;2023-03-14T00:51:07;67.32;37.12;93.20;;
50333;Laerm;36239;48.132;-1.210;2023-03-14T00:53:37;63.28;36.45;94.00;;
50333;Laerm;36239;48.132;-1.210;2023-03-14T00:56:08;60.66;37.12;88.70;;
50333;Laerm;36239;48.132;-1.210;2023-03-14T00:58:34;58.09;36.45;83.65;;
50333;Laerm;36239;48.132;-1.210;2023-03-14T01:01:10;54.23;35.36;79.76;;
50333;Laerm;36239;48.132;-1.210;2023-03-14T01:03:36;63.86;36.20;92.00;;
50333;Laerm;36239;48.132;-1.210;2023-03-14T01:06:09;61.94;36.69;91.10;;
50333;Laerm;36239;48.132;-1.210;2023-03-14T01:08:36;67.46;35.94;100.54;;
50333;Laerm;36239;48.132;-1.210;2023-03-14T01:11:06;55.23;35.94;80.83;;
50333;Laerm;36239;48.132;-1.210;2023-03-14T01:13:32;68.35;37.12;94.58;;
50333;Laerm;36239;48.132;-1.210;2023-03-14T01:16:04;59.42;35.66;90.83;;
50333;Laerm;36239;48.132;-1.210;2023-03-14T01:18:32;58.15;36.45;85.36;;
50333;Laerm;36239;48.132;-1.210;2023-03-14T01:20:58;49.45;38.21;76.48;;
50333;Laerm;36239;48.132;-1.210;2023-03-14T01:23:24;63.25;38.05;88.92;;
50333;Laerm;36239;48.132;-1.210;2023-03-14T01:25:50;78.21;41.68;103.75;;
50333;Laerm;36239;48.132;-1.210;2023-03-14T01:28:16;76.02;40.80;100.73;;
50333;Laerm;36239;48.132;-1.210;2023-03-14T01:30:44;68.23;40.45;97.99;;
50333;Laerm;36239;48.132;-1.210;2023-03-14T01:33:09;76.63;41.53;102.94;;
50333;Laerm;36239;48.132;-1.210;2023-03-14T01:35:37;77.27;42.79;106.70;;
50333;Laerm;36239;48.132;-1.210;2023-03-14T01:38:03;72.79;40.80;101.86;;
50333;Laerm;36239;48.132;-1.210;2023-03-14T01:40:29;63.06;41.06;90.51;;
50333;Laerm;36239;48.132;-1.210;2023-03-14T01:43:00;76.00;42.35;108.27;;
50333;Laerm;36239;48.132;-1.210;2023-03-14T01:48:15;76.86;41.53;101.42;;
50333;Laerm;36239;48.132;-1.210;2023-03-14T01:50:41;69.92;40.71;96.74;;
50333;Laerm;36239;48.132;-1.210;2023-03-14T01:53:07;62.92;38.37;93.64;;
50333;Laerm;36239;48.132;-1.210;2023-03-14T01:55:33;62.72;39.21;90.76;;
50333;Laerm;36239;48.132;-1.210;2023-03-14T01:58:00;68.21;38.95;95.13;;
50333;Laerm;36239;48.132;-1.210;2023-03-14T02:00:28;65.64;39.92;95.46;;
50333;Laerm;36239;48.132;-1.210;2023-03-14T02:02:55;69.30;39.34;94.27;;
50333;Laerm;36239;48.132;-1.210;2023-03-14T02:05:24;75.85;39.46;104.69;;
50333;Laerm;36239;48.132;-1.210;2023-03-14T02:07:52;54.55;39.70;80.08;;
50333;Laerm;36239;48.132;-1.210;2023-03-14T02:10:19;73.19;39.21;100.17;;
50333;Laerm;36239;48.132;-1.210;2023-03-14T02:12:49;64.03;38.81;91.31;;
50333;Laerm;36239;48.132;-1.210;2023-03-14T02:15:16;63.96;38.95;90.48;;
50333;Laerm;36239;48.132;-1.210;2023-03-14T02:17:43;73.55;40.23;96.39;;
50333;Laerm;36239;48.132;-1.210;2023-03-14T02:22:42;70.66;40.13;98.03;;
50333;Laerm;36239;48.132;-1.210;2023-03-14T02:27:44;69.38;40.23;95.36;;
50333;Laerm;36239;48.132;-1.210;2023-03-14T02:30:12;77.96;40.33;100.58;;
50333;Laerm;36239;48.132;-1.210;2023-03-14T02:32:40;72.10;37.87;95.89;;
50333;Laerm;36239;48.132;-1.210;2023-03-14T02:35:08;60.03;38.21;86.82;;
50333;Laerm;36239;48.132;-1.210;2023-03-14T02:37:37;73.41;38.95;100.19;;
50333;Laerm;36239;48.132;-1.210;2023-03-14T02:40:04;63.59;38.81;89.13;;
50333;Laerm;36239;48.132;-1.210;2023-03-14T02:42:30;66.66;38.95;95.15;;
50333;Laerm;36239;48.132;-1.210;2023-03-14T02:44:59;73.66;38.05;103.03;;
50333;Laerm;36239;48.132;-1.210;2023-03-14T02:47:27;70.53;38.67;97.67;;
50333;Laerm;36239;48.132;-1.210;2023-03-14T02:49:56;67.73;38.52;93.84;;
50333;Laerm;36239;48.132;-1.210;2023-03-14T02:52:24;66.42;38.81;91.73;;
50333;Laerm;36239;48.132;-1.210;2023-03-14T02:54:50;69.09;40.23;98.51;;
50333;Laerm;36239;48.132;-1.210;2023-03-14T02:57:16;69.22;39.46;97.99;;
50333;Laerm;36239;48.132;-1.210;2023-03-14T02:59:42;70.77;39.92;99.40;;
50333;Laerm;36239;48.132;-1.210;2023-03-14T03:02:08;76.38;39.34;105.58;;
50333;Laerm;36239;48.132;-1.210;2023-03-14T03:04:34;62.60;39.81;88.27;;
50333;Laerm;36239;48.132;-1.210;2023-03-14T03:06:59;60.26;38.81;91.34;;
50333;Laerm;36239;48.132;-1.210;2023-03-14T03:09:25;63.27;38.67;90.07;;
50333;Laerm;36239;48.132;-1.210;2023-03-14T03:11:51;63.07;38.05;93.74;;
50333;Laerm;36239;48.132;-1.210;2023-03-14T03:14:17;60.18;39.58;92.24;;
50333;Laerm;36239;48.132;-1.210;2023-03-14T03:16:43;73.41;37.88;100.76;;
50333;Laerm;36239;48.132;-1.210;2023-03-14T03:19:09;59.93;37.70;88.60;;
50333;Laerm;36239;48.132;-1.210;2023-03-14T03:21:36;58.85;36.20;86.53;;
50333;Laerm;36239;48.132;-1.210;2023-03-14T03:24:02;59.08;36.69;84.88;;
50333;Laerm;36239;48.132;-1.210;2023-03-14T03:26:28;60.87;37.52;89.42;;
50333;Laerm;36239;48.132;-1.210;2023-03-14T03:28:53;56.82;38.05;82.87;;
50333;Laerm;36239;48.132;-1.210;2023-03-14T03:31:20;61.83;37.52;89.22;;
50333;Laerm;36239;48.132;-1.210;2023-03-14T03:33:46;66.10;37.70;95.92;;
50333;Laerm;36239;48.132;-1.210;2023-03-14T03:36:12;42.29;37.88;63.43;;
50333;Laerm;36239;48.132;-1.210;2023-03-14T03:38:38;44.81;38.95;71.16;;
50333;Laerm;36239;48.132;-1.210;2023-03-14T03:41:04;47.04;37.88;71.05;;
50333;Laerm;36239;48.132;-1.210;2023-03-14T03:43:31;56.00;36.91;83.81;;
50333;Laerm;36239;48.132;-1.210;2023-03-14T03:45:57;71.49;37.32;98.24;;
50333;Laerm;36239;48.132;-1.210;2023-03-14T03:48:23;50.46;37.52;75.20;;
50333;Laerm;36239;48.132;-1.210;2023-03-14T03:50:49;69.42;37.70;99.13;;
50333;Laerm;36239;48.132;-1.210;2023-03-14T03:53:15;66.20;36.91;93.38;;
50333;Laerm;36239;48.132;-1.210;2023-03-14T03:55:41;54.20;38.05;77.96;;
50333;Laerm;36239;48.132;-1.210;2023-03-14T03:58:08;61.01;34.31;90.99;;
50333;Laerm;36239;48.132;-1.210;2023-03-14T04:00:34;57.49;36.20;83.31;;
50333;Laerm;36239;48.132;-1.210;2023-03-14T04:03:00;72.33;39.34;96.66;;
50333;Laerm;36239;48.132;-1.210;2023-03-14T04:05:26;65.19;39.70;90.89;;
50333;Laerm;36239;48.132;-1.210;2023-03-14T04:07:52;72.47;38.52;100.97;;
50333;Laerm;36239;48.132;-1.210;2023-03-14T04:10:18;68.40;41.38;97.27;;
50333;Laerm;36239;48.132;-1.210;2023-03-14T04:12:44;79.55;42.47;107.71;;
50333;Laerm;36239;48.132;-1.210;2023-03-14T04:15:10;72.51;42.09;94.52;;
50333;Laerm;36239;48.132;-1.210;2023-03-14T04:17:36;71.29;41.89;99.38;;
50333;Laerm;36239;48.132;-1.210;2023-03-14T04:20:02;68.67;42.03;96.50;;
50333;Laerm;36239;48.132;-1.210;2023-03-14T04:22:28;66.60;39.70;95.42;;
50333;Laerm;36239;48.132;-1.210;2023-03-14T04:24:54;70.43;40.03;99.60;;
50333;Laerm;36239;48.132;-1.210;2023-03-14T04:27:20;72.63;38.52;98.93;;
50333;Laerm;36239;48.132;-1.210;2023-03-14T04:29:46;68.17;37.52;98.38;;
50333;Laerm;36239;48.132;-1.210;2023-03-14T04:32:12;53.93;38.67;78.86;;
50333;Laerm;36239;48.132;-1.210;2023-03-14T04:34:38;61.82;37.88;91.94;;
50333;Laerm;36239;48.132;-1.210;2023-03-14T04:37:04;63.10;38.21;90.29;;
50333;Laerm;36239;48.132;-1.210;2023-03-14T04:39:30;63.30;38.81;88.38;;
50333;Laerm;36239;48.132;-1.210;2023-03-14T04:41:56;53.92;37.52;75.48;;
50333;Laerm;36239;48.132;-1.210;2023-03-14T04:44:22;64.97;37.52;90.59;;
50333;Laerm;36239;48.132;-1.210;2023-03-14T04:46:48;53.39;36.91;77.70;;
50333;Laerm;36239;48.132;-1.210;2023-03-14T04:49:14;50.62;37.88;79.34;;
50333;Laerm;36239;48.132;-1.210;2023-03-14T04:51:40;63.89;38.05;89.57;;
50333;Laerm;36239;48.132;-1.210;2023-03-14T04:54:07;72.82;37.32;103.73;;
50333;Laerm;36239;48.132;-1.210;2023-03-14T04:56:33;64.46;38.52;93.09;;
50333;Laerm;36239;48.132;-1.210;2023-03-14T04:58:59;62.27;38.05;85.43;;
50333;Laerm;36239;48.132;-1.210;2023-03-14T05:01:25;63.68;37.32;88.76;;
50333;Laerm;36239;48.132;-1.210;2023-03-14T05:03:51;55.78;38.81;80.49;;
50333;Laerm;36239;48.132;-1.210;2023-03-14T05:06:17;52.69;37.70;79.59;;
50333;Laerm;36239;48.132;-1.210;2023-03-14T05:08:43;57.87;38.67;87.90;;
50333;Laerm;36239;48.132;-1.210;2023-03-14T05:11:09;68.37;40.23;95.53;;
50333;Laerm;36239;48.132;-1.210;2023-03-14T05:13:35;75.28;42.53;101.18;;
50333;Laerm;36239;48.132;-1.210;2023-03-14T05:16:08;73.08;41.96;95.02;;
50333;Laerm;36239;48.132;-1.210;2023-03-14T05:18:34;58.58;39.70;84.83;;
50333;Laerm;36239;48.132;-1.210;2023-03-14T05:21:01;71.51;41.14;96.77;;
50333;Laerm;36239;48.132;-1.210;2023-03-14T05:23:27;58.90;40.33;84.33;;
50333;Laerm;36239;48.132;-1.210;2023-03-14T05:25:53;64.35;38.67;92.95;;
50333;Laerm;36239;48.132;-1.210;2023-03-14T05:28:19;52.72;38.21;81.01;;
50333;Laerm;36239;48.132;-1.210;2023-03-14T05:30:45;68.83;39.08;94.67;;
50333;Laerm;36239;48.132;-1.210;2023-03-14T05:33:11;63.36;39.08;89.15;;
50333;Laerm;36239;48.132;-1.210;2023-03-14T05:35:37;55.86;39.92;79.36;;
50333;Laerm;36239;48.132;-1.210;2023-03-14T05:38:03;51.53;38.67;78.54;;
50333;Laerm;36239;48.132;-1.210;2023-03-14T05:40:29;63.04;40.13;92.60;;
50333;Laerm;36239;48.132;-1.210;2023-03-14T05:42:55;53.06;39.21;80.54;;
50333;Laerm;36239;48.132;-1.210;2023-03-14T05:45:21;60.04;38.81;84.69;;
50333;Laerm;36239;48.132;-1.210;2023-03-14T05:47:47;57.44;39.58;82.21;;
50333;Laerm;36239;48.132;-1.210;2023-03-14T05:50:13;57.75;38.81;86.84;;
50333;Laerm;36239;48.132;-1.210;2023-03-14T05:52:39;48.54;38.81;74.00;;
50333;Laerm;36239;48.132;-1.210;2023-03-14T05:55:05;52.97;40.33;85.70;;
50333;Laerm;36239;48.132;-1.210;2023-03-14T05:57:31;53.22;39.92;81.00;;
50333;Laerm;36239;48.132;-1.210;2023-03-14T05:59:57;54.05;40.62;81.01;;
50333;Laerm;36239;48.132;-1.210;2023-03-14T06:02:23;58.14;40.33;87.89;;
50333;Laerm;36239;48.132;-1.210;2023-03-14T06:04:49;68.16;41.30;94.74;;
50333;Laerm;36239;48.132;-1.210;2023-03-14T06:07:15;71.43;41.22;100.47;;
50333;Laerm;36239;48.132;-1.210;2023-03-14T06:09:41;67.10;42.74;95.12;;
50333;Laerm;36239;48.132;-1.210;2023-03-14T06:12:07;62.43;41.68;87.39;;
50333;Laerm;36239;48.132;-1.210;2023-03-14T06:14:33;58.69;41.30;85.56;;
50333;Laerm;36239;48.132;-1.210;2023-03-14T06:16:59;55.42;41.14;81.90;;
50333;Laerm;36239;48.132;-1.210;2023-03-14T06:19:25;60.40;41.75;87.02;;
50333;Laerm;36239;48.132;-1.210;2023-03-14T06:21:51;60.96;42.09;89.31;;
50333;Laerm;36239;48.132;-1.210;2023-03-14T06:24:17;60.88;40.43;88.21;;
50333;Laerm;36239;48.132;-1.210;2023-03-14T06:26:43;73.02;41.14;102.13;;
50333;Laerm;36239;48.132;-1.210;2023-03-14T06:29:10;61.84;42.03;88.56;;
50333;Laerm;36239;48.132;-1.210;2023-03-14T06:31:36;63.54;41.82;89.17;;
50333;Laerm;36239;48.132;-1.210;2023-03-14T06:34:02;53.08;41.82;83.03;;
50333;Laerm;36239;48.132;-1.210;2023-03-14T06:36:28;53.24;41.38;79.73;;
50333;Laerm;36239;48.132;-1.210;2023-03-14T06:38:54;52.84;41.46;82.45;;
50333;Laerm;36239;48.132;-1.210;2023-03-14T06:41:20;49.39;41.22;79.52;;
50333;Laerm;36239;48.132;-1.210;2023-03-14T06:43:46;49.98;41.06;80.03;;
50333;Laerm;36239;48.132;-1.210;2023-03-14T06:46:12;50.90;41.14;78.15;;
50333;Laerm;36239;48.132;-1.210;2023-03-14T06:48:38;54.22;41.96;73.94;;
50333;Laerm;36239;48.132;-1.210;2023-03-14T06:51:04;53.94;41.30;83.29;;
50333;Laerm;36239;48.132;-1.210;2023-03-14T06:53:30;58.53;42.16;89.56;;
50333;Laerm;36239;48.132;-1.210;2023-03-14T06:55:56;58.19;40.71;88.34;;
50333;Laerm;36239;48.132;-1.210;2023-03-14T06:58:22;53.03;42.06;83.74;;
50333;Laerm;36239;48.132;-1.210;2023-03-14T07:00:48;59.29;41.89;85.00;;
50333;Laerm;36239;48.132;-1.210;2023-03-14T07:03:14;51.20;41.75;73.36;;
50333;Laerm;36239;48.132;-1.210;2023-03-14T07:05:40;67.35;43.09;97.07;;
50333;Laerm;36239;48.132;-1.210;2023-03-14T07:08:07;53.34;42.65;78.34;;
50333;Laerm;36239;48.132;-1.210;2023-03-14T07:10:33;60.77;41.46;91.77;;
50333;Laerm;36239;48.132;-1.210;2023-03-14T07:12:59;50.96;42.29;79.37;;
50333;Laerm;36239;48.132;-1.210;2023-03-14T07:15:25;47.99;41.89;72.18;;
50333;Laerm;36239;48.132;-1.210;2023-03-14T07:17:51;65.12;42.82;89.48;;
50333;Laerm;36239;48.132;-1.210;2023-03-14T07:20:17;58.60;42.71;86.80;;
50333;Laerm;36239;48.132;-1.210;2023-03-14T07:22:43;53.47;43.04;82.12;;
50333;Laerm;36239;48.132;-1.210;2023-03-14T07:25:09;62.58;43.63;91.67;;
50333;Laerm;36239;48.132;-1.210;2023-03-14T07:27:37;67.52;43.86;95.02;;
50333;Laerm;36239;48.132;-1.210;2023-03-14T07:30:04;56.26;43.72;67.90;;
50333;Laerm;36239;48.132;-1.210;2023-03-14T07:32:30;62.47;44.03;89.18;;
50333;Laerm;36239;48.132;-1.210;2023-03-14T07:34:56;64.20;43.63;88.33;;
50333;Laerm;36239;48.132;-1.210;2023-03-14T07:37:22;62.38;43.68;89.89;;
50333;Laerm;36239;48.132;-1.210;2023-03-14T07:39:48;61.14;43.77;87.60;;
50333;Laerm;36239;48.132;-1.210;2023-03-14T07:42:14;51.88;43.72;70.61;;
50333;Laerm;36239;48.132;-1.210;2023-03-14T07:44:40;60.25;43.39;86.58;;
50333;Laerm;36239;48.132;-1.210;2023-03-14T07:47:06;57.39;42.35;84.30;;
50333;Laerm;36239;48.132;-1.210;2023-03-14T07:49:32;48.58;40.71;69.72;;
50333;Laerm;36239;48.132;-1.210;2023-03-14T07:51:58;61.99;40.89;90.79;;
50333;Laerm;36239;48.132;-1.210;2023-03-14T07:54:24;67.76;40.89;96.47;;
50333;Laerm;36239;48.132;-1.210;2023-03-14T07:56:51;63.40;41.30;97.64;;
50333;Laerm;36239;48.132;-1.210;2023-03-14T07:59:18;51.26;42.09;79.84;;
50333;Laerm;36239;48.132;-1.210;2023-03-14T08:01:44;60.32;40.62;88.94;;
50333;Laerm;36239;48.132;-1.210;2023-03-14T08:04:10;58.65;41.06;88.30;;
50333;Laerm;36239;48.132;-1.210;2023-03-14T08:06:36;52.96;40.23;81.18;;
50333;Laerm;36239;48.132;-1.210;2023-03-14T08:09:03;52.12;40.89;77.05;;
50333;Laerm;36239;48.132;-1.210;2023-03-14T08:11:29;63.10;39.58;84.77;;
50333;Laerm;36239;48.132;-1.210;2023-03-14T08:13:55;67.92;40.54;89.70;;
50333;Laerm;36239;48.132;-1.210;2023-03-14T08:16:21;59.54;40.23;87.45;;
50333;Laerm;36239;48.132;-1.210;2023-03-14T08:18:47;60.15;40.33;87.32;;
50333;Laerm;36239;48.132;-1.210;2023-03-14T08:21:13;58.18;40.23;87.75;;
50333;Laerm;36239;48.132;-1.210;2023-03-14T08:23:39;53.99;40.43;84.58;;
50333;Laerm;36239;48.132;-1.210;2023-03-14T08:26:06;48.28;39.70;71.58;;
50333;Laerm;36239;48.132;-1.210;2023-03-14T08:28:32;54.63;40.33;81.74;;
50333;Laerm;36239;48.132;-1.210;2023-03-14T08:30:59;58.31;40.03;82.81;;
50333;Laerm;36239;48.132;-1.210;2023-03-14T08:33:26;60.09;40.53;88.33;;
50333;Laerm;36239;48.132;-1.210;2023-03-14T08:35:53;49.28;40.80;76.45;;
50333;Laerm;36239;48.132;-1.210;2023-03-14T08:38:19;61.80;39.70;86.58;;
50333;Laerm;36239;48.132;-1.210;2023-03-14T08:40:45;69.33;39.81;101.51;;
50333;Laerm;36239;48.132;-1.210;2023-03-14T08:43:11;62.67;40.71;93.74;;
50333;Laerm;36239;48.132;-1.210;2023-03-14T08:45:37;73.17;39.70;102.53;;
50333;Laerm;36239;48.132;-1.210;2023-03-14T08:48:03;63.50;39.58;91.25;;
50333;Laerm;36239;48.132;-1.210;2023-03-14T08:50:29;53.19;39.34;78.45;;
50333;Laerm;36239;48.132;-1.210;2023-03-14T08:52:55;59.61;38.21;84.02;;
50333;Laerm;36239;48.132;-1.210;2023-03-14T08:55:26;52.45;40.13;79.95;;
50333;Laerm;36239;48.132;-1.210;2023-03-14T08:57:53;63.42;38.95;94.09;;
50333;Laerm;36239;48.132;-1.210;2023-03-14T09:00:19;48.50;37.88;71.76;;
50333;Laerm;36239;48.132;-1.210;2023-03-14T09:02:45;53.44;38.95;82.34;;
50333;Laerm;36239;48.132;-1.210;2023-03-14T09:05:11;44.44;39.34;61.59;;
50333;Laerm;36239;48.132;-1.210;2023-03-14T09:07:38;66.27;40.80;97.68;;
50333;Laerm;36239;48.132;-1.210;2023-03-14T09:10:05;58.57;38.67;87.31;;
50333;Laerm;36239;48.132;-1.210;2023-03-14T09:12:31;62.15;40.23;89.76;;
50333;Laerm;36239;48.132;-1.210;2023-03-14T09:14:57;53.31;40.13;78.62;;
50333;Laerm;36239;48.132;-1.210;2023-03-14T09:17:23;60.80;41.22;89.49;;
50333;Laerm;36239;48.132;-1.210;2023-03-14T09:19:49;57.91;41.22;85.75;;
50333;Laerm;36239;48.132;-1.210;2023-03-14T09:22:15;58.30;40.62;80.91;;
50333;Laerm;36239;48.132;-1.210;2023-03-14T09:24:41;56.32;41.46;79.13;;
50333;Laerm;36239;48.132;-1.210;2023-03-14T09:27:07;62.81;42.82;88.07;;
50333;Laerm;36239;48.132;-1.210;2023-03-14T09:29:34;76.64;44.54;103.07;;
50333;Laerm;36239;48.132;-1.210;2023-03-14T09:32:00;65.66;42.09;94.61;;
50333;Laerm;36239;48.132;-1.210;2023-03-14T09:34:26;69.04;42.35;96.85;;
50333;Laerm;36239;48.132;-1.210;2023-03-14T09:36:52;64.42;43.90;93.47;;
50333;Laerm;36239;48.132;-1.210;2023-03-14T09:39:19;70.52;43.63;100.41;;
50333;Laerm;36239;48.132;-1.210;2023-03-14T09:41:49;62.56;42.98;91.71;;
50333;Laerm;36239;48.132;-1.210;2023-03-14T09:46:43;62.00;42.03;95.13;;
50333;Laerm;36239;48.132;-1.210;2023-03-14T09:49:19;67.71;42.53;95.03;;
50333;Laerm;36239;48.132;-1.210;2023-03-14T09:51:46;69.51;42.16;96.89;;
50333;Laerm;36239;48.132;-1.210;2023-03-14T09:54:17;67.51;42.65;93.60;;
50333;Laerm;36239;48.132;-1.210;2023-03-14T09:56:45;65.53;40.98;90.16;;
50333;Laerm;36239;48.132;-1.210;2023-03-14T09:59:11;64.45;42.09;90.50;;
50333;Laerm;36239;48.132;-1.210;2023-03-14T10:01:39;61.58;40.98;88.74;;
50333;Laerm;36239;48.132;-1.210;2023-03-14T10:04:09;71.62;42.59;97.79;;
50333;Laerm;36239;48.132;-1.210;2023-03-14T10:06:36;56.43;42.98;79.12;;
50333;Laerm;36239;48.132;-1.210;2023-03-14T10:09:02;59.04;42.53;86.84;;
50333;Laerm;36239;48.132;-1.210;2023-03-14T10:11:28;72.50;44.11;98.68;;
50333;Laerm;36239;48.132;-1.210;2023-03-14T10:14:05;56.37;43.54;78.30;;
50333;Laerm;36239;48.132;-1.210;2023-03-14T10:16:33;71.00;42.90;98.13;;
50333;Laerm;36239;48.132;-1.210;2023-03-14T10:19:03;57.99;42.16;84.06;;
50333;Laerm;36239;48.132;-1.210;2023-03-14T10:21:30;69.61;41.22;96.31;;
50333;Laerm;36239;48.132;-1.210;2023-03-14T10:26:41;66.96;42.19;96.77;;
50333;Laerm;36239;48.132;-1.210;2023-03-14T10:29:09;63.27;41.46;94.55;;
50333;Laerm;36239;48.132;-1.210;2023-03-14T10:31:52;71.89;42.16;99.95;;
50333;Laerm;36239;48.132;-1.210;2023-03-14T10:34:26;74.82;41.46;100.81;;
50333;Laerm;36239;48.132;-1.210;2023-03-14T10:36:53;75.68;43.54;101.74;;
50333;Laerm;36239;48.132;-1.210;2023-03-14T10:41:52;78.26;42.16;106.91;;
50333;Laerm;36239;48.132;-1.210;2023-03-14T10:44:20;75.28;43.34;100.64;;
50333;Laerm;36239;48.132;-1.210;2023-03-14T10:46:47;71.27;43.14;94.14;;
50333;Laerm;36239;48.132;-1.210;2023-03-14T10:49:34;65.49;41.26;93.51;;
50333;Laerm;36239;48.132;-1.210;2023-03-14T10:52:01;69.78;40.62;96.22;;
50333;Laerm;36239;48.132;-1.210;2023-03-14T10:54:29;66.39;40.98;94.14;;
50333;Laerm;36239;48.132;-1.210;2023-03-14T10:56:56;65.41;41.75;90.40;;
50333;Laerm;36239;48.132;-1.210;2023-03-14T10:59:22;51.21;41.06;74.70;;
50333;Laerm;36239;48.132;-1.210;2023-03-14T11:01:54;70.45;41.61;100.67;;
50333;Laerm;36239;48.132;-1.210;2023-03-14T11:04:38;69.38;43.58;98.53;;
50333;Laerm;36239;48.132;-1.210;2023-03-14T11:09:40;69.95;41.53;96.99;;
50333;Laerm;36239;48.132;-1.210;2023-03-14T11:12:25;73.72;42.59;101.13;;
50333;Laerm;36239;48.132;-1.210;2023-03-14T11:14:57;69.20;42.71;93.68;;
50333;Laerm;36239;48.132;-1.210;2023-03-14T11:17:38;69.06;42.35;97.58;;
50333;Laerm;36239;48.132;-1.210;2023-03-14T11:22:38;67.99;42.03;90.51;;
50333;Laerm;36239;48.132;-1.210;2023-03-14T11:25:12;80.01;43.34;104.27;;
50333;Laerm;36239;48.132;-1.210;2023-03-14T11:27:42;63.45;41.96;88.57;;
50333;Laerm;36239;48.132;-1.210;2023-03-14T11:30:24;74.25;42.88;99.53;;
50333;Laerm;36239;48.132;-1.210;2023-03-14T11:35:33;67.54;42.03;96.30;;
50333;Laerm;36239;48.132;-1.210;2023-03-14T11:38:09;76.44;43.39;104.85;;
50333;Laerm;36239;48.132;-1.210;2023-03-14T11:40:37;74.86;42.98;98.41;;
50333;Laerm;36239;48.132;-1.210;2023-03-14T11:43:09;72.70;42.09;100.82;;
50333;Laerm;36239;48.132;-1.210;2023-03-14T11:45:38;71.39;40.80;95.79;;
50333;Laerm;36239;48.132;-1.210;2023-03-14T11:50:31;57.27;42.47;80.96;;
50333;Laerm;36239;48.132;-1.210;2023-03-14T11:53:01;62.28;43.14;88.86;;
50333;Laerm;36239;48.132;-1.210;2023-03-14T11:55:32;58.54;43.09;83.58;;
50333;Laerm;36239;48.132;-1.210;2023-03-14T11:58:01;67.10;44.19;90.52;;
50333;Laerm;36239;48.132;-1.210;2023-03-14T12:00:28;64.18;43.04;91.37;;
50333;Laerm;36239;48.132;-1.210;2023-03-14T12:06:04;65.76;43.39;92.28;;
50333;Laerm;36239;48.132;-1.210;2023-03-14T12:10:56;67.70;42.22;92.32;;
50333;Laerm;36239;48.132;-1.210;2023-03-14T12:13:24;58.90;42.59;88.08;;
50333;Laerm;36239;48.132;-1.210;2023-03-14T12:15:54;64.60;42.53;91.03;;
50333;Laerm;36239;48.132;-1.210;2023-03-14T12:18:26;60.10;42.53;84.16;;
50333;Laerm;36239;48.132;-1.210;2023-03-14T12:21:09;59.13;43.19;84.86;;
50333;Laerm;36239;48.132;-1.210;2023-03-14T12:23:55;62.96;43.04;87.73;;
50333;Laerm;36239;48.132;-1.210;2023-03-14T12:26:25;63.33;42.16;92.76;;
50333;Laerm;36239;48.132;-1.210;2023-03-14T12:29:09;63.92;42.09;92.98;;
50333;Laerm;36239;48.132;-1.210;2023-03-14T12:39:13;69.81;40.80;94.62;;
50333;Laerm;36239;48.132;-1.210;2023-03-14T12:41:43;62.66;40.43;91.36;;
50333;Laerm;36239;48.132;-1.210;2023-03-14T12:46:57;71.67;41.82;100.90;;
50333;Laerm;36239;48.132;-1.210;2023-03-14T12:49:29;65.54;42.41;92.69;;
50333;Laerm;36239;48.132;-1.210;2023-03-14T12:51:59;62.53;43.81;91.81;;
50333;Laerm;36239;48.132;-1.210;2023-03-14T12:54:47;74.24;42.76;101.88;;
50333;Laerm;36239;48.132;-1.210;2023-03-14T12:57:21;73.90;43.04;100.39;;
50333;Laerm;36239;48.132;-1.210;2023-03-14T12:59:55;69.00;42.35;102.12;;
50333;Laerm;36239;48.132;-1.210;2023-03-14T13:02:28;66.99;43.29;93.70;;
50333;Laerm;36239;48.132;-1.210;2023-03-14T13:05:02;65.13;43.86;96.00;;
50333;Laerm;36239;48.132;-1.210;2023-03-14T13:07:33;54.00;42.93;76.46;;
50333;Laerm;36239;48.132;-1.210;2023-03-14T13:10:04;48.57;42.41;71.25;;
50333;Laerm;36239;48.132;-1.210;2023-03-14T13:12:36;57.81;42.82;78.62;;
50333;Laerm;36239;48.132;-1.210;2023-03-14T13:15:11;54.47;41.30;77.35;;
50333;Laerm;36239;48.132;-1.210;2023-03-14T13:17:39;72.31;41.30;101.54;;
50333;Laerm;36239;48.132;-1.210;2023-03-14T13:23:01;64.63;42.71;91.43;;
50333;Laerm;36239;48.132;-1.210;2023-03-14T13:25:36;61.84;41.89;94.21;;
50333;Laerm;36239;48.132;-1.210;2023-03-14T13:28:02;65.73;42.93;95.71;;
50333;Laerm;36239;48.132;-1.210;2023-03-14T13:30:35;58.35;42.58;91.10;;
50333;Laerm;36239;48.132;-1.210;2023-03-14T13:33:03;62.01;42.22;90.20;;
50333;Laerm;36239;48.132;-1.210;2023-03-14T13:35:37;77.90;43.09;105.88;;
50333;Laerm;36239;48.132;-1.210;2023-03-14T13:38:04;66.23;42.53;94.05;;
50333;Laerm;36239;48.132;-1.210;2023-03-14T13:40:31;69.57;42.65;98.29;;
50333;Laerm;36239;48.132;-1.210;2023-03-14T13:45:52;61.23;40.98;91.11;;
50333;Laerm;36239;48.132;-1.210;2023-03-14T13:48:20;70.95;42.35;97.72;;
50333;Laerm;36239;48.132;-1.210;2023-03-14T13:50:50;65.82;41.53;92.25;;
50333;Laerm;36239;48.132;-1.210;2023-03-14T13:53:17;66.20;43.49;89.76;;
50333;Laerm;36239;48.132;-1.210;2023-03-14T13:55:43;64.08;43.29;93.74;;
50333;Laerm;36239;48.132;-1.210;2023-03-14T13:58:29;65.07;40.80;95.09;;
50333;Laerm;36239;48.132;-1.210;2023-03-14T14:01:02;59.90;40.80;83.97;;
50333;Laerm;36239;48.132;-1.210;2023-03-14T14:03:32;74.84;41.89;102.72;;
50333;Laerm;36239;48.132;-1.210;2023-03-14T14:05:59;76.91;40.13;108.35;;
50333;Laerm;36239;48.132;-1.210;2023-03-14T14:08:26;70.61;42.65;98.76;;
50333;Laerm;36239;48.132;-1.210;2023-03-14T14:10:54;64.12;40.71;92.80;;
50333;Laerm;36239;48.132;-1.210;2023-03-14T14:13:22;68.06;41.30;96.90;;
50333;Laerm;36239;48.132;-1.210;2023-03-14T14:15:51;70.69;42.16;98.57;;
50333;Laerm;36239;48.132;-1.210;2023-03-14T14:18:18;61.25;42.35;84.39;;
50333;Laerm;36239;48.132;-1.210;2023-03-14T14:20:47;66.08;43.39;89.92;;
50333;Laerm;36239;48.132;-1.210;2023-03-14T14:23:18;67.83;44.15;92.65;;